sensor_id;sensor_type;location;lat;lon;timestamp;P1;durP1;ratioP1;P2;durP2;ratioP2
25948;SDS011;13961;51.178;4.448;2023-05-10T00:00:36;20.25;;;9.63;;
25948;SDS011;13961;51.178;4.448;2023-05-10T00:03:03;19.23;;;9.73;;
25948;SDS011;13961;51.178;4.448;2023-05-10T00:05:29;22.25;;;9.73;;
25948;SDS011;13961;51.178;4.448;2023-05-10T00:07:56;25.73;;;10.15;;
25948;SDS011;13961;51.178;4.448;2023-05-10T00:10:23;19.48;;;10.07;;
25948;SDS011;13961;51.178;4.448;2023-05-10T00:12:48;21.92;;;11.50;;
25948;SDS011;13961;51.178;4.448;2023-05-10T00:15:14;23.55;;;10.82;;
25948;SDS011;13961;51.178;4.448;2023-05-10T00:17:40;31.60;;;11.98;;
25948;SDS011;13961;51.178;4.448;2023-05-10T00:20:06;25.30;;;12.38;;
25948;SDS011;13961;51.178;4.448;2023-05-10T00:22:32;29.17;;;12.38;;
25948;SDS011;13961;51.178;4.448;2023-05-10T00:24:58;29.65;;;14.02;;
25948;SDS011;13961;51.178;4.448;2023-05-10T00:27:24;26.58;;;14.23;;
25948;SDS011;13961;51.178;4.448;2023-05-10T00:29:49;25.02;;;13.60;;
25948;SDS011;13961;51.178;4.448;2023-05-10T00:32:15;32.00;;;14.73;;
25948;SDS011;13961;51.178;4.448;2023-05-10T00:34:42;32.90;;;14.10;;
25948;SDS011;13961;51.178;4.448;2023-05-10T00:37:08;29.27;;;15.25;;
25948;SDS011;13961;51.178;4.448;2023-05-10T00:39:33;32.50;;;15.23;;
25948;SDS011;13961;51.178;4.448;2023-05-10T00:41:59;26.73;;;13.95;;
25948;SDS011;13961;51.178;4.448;2023-05-10T00:44:25;31.30;;;15.15;;
25948;SDS011;13961;51.178;4.448;2023-05-10T00:46:52;26.40;;;15.02;;
25948;SDS011;13961;51.178;4.448;2023-05-10T00:49:18;25.55;;;13.90;;
25948;SDS011;13961;51.178;4.448;2023-05-10T00:51:44;31.38;;;15.00;;
25948;SDS011;13961;51.178;4.448;2023-05-10T00:54:11;30.67;;;14.98;;
25948;SDS011;13961;51.178;4.448;2023-05-10T00:56:38;28.63;;;14.57;;
25948;SDS011;13961;51.178;4.448;2023-05-10T00:59:10;32.38;;;14.05;;
25948;SDS011;13961;51.178;4.448;2023-05-10T01:01:36;25.35;;;13.50;;
25948;SDS011;13961;51.178;4.448;2023-05-10T01:04:02;28.85;;;13.18;;
25948;SDS011;13961;51.178;4.448;2023-05-10T01:06:28;30.38;;;14.00;;
25948;SDS011;13961;51.178;4.448;2023-05-10T01:08:54;25.77;;;13.93;;
25948;SDS011;13961;51.178;4.448;2023-05-10T01:13:52;33.00;;;13.80;;
25948;SDS011;13961;51.178;4.448;2023-05-10T01:16:22;32.53;;;15.55;;
25948;SDS011;13961;51.178;4.448;2023-05-10T01:18:48;36.35;;;16.58;;
25948;SDS011;13961;51.178;4.448;2023-05-10T01:21:33;37.03;;;15.98;;
25948;SDS011;13961;51.178;4.448;2023-05-10T01:40:17;32.95;;;14.32;;
25948;SDS011;13961;51.178;4.448;2023-05-10T01:42:53;34.55;;;13.52;;
25948;SDS011;13961;51.178;4.448;2023-05-10T01:45:26;29.07;;;13.23;;
25948;SDS011;13961;51.178;4.448;2023-05-10T01:48:11;27.80;;;13.95;;
25948;SDS011;13961;51.178;4.448;2023-05-10T01:50:39;28.80;;;13.43;;
25948;SDS011;13961;51.178;4.448;2023-05-10T01:53:11;31.23;;;13.02;;
25948;SDS011;13961;51.178;4.448;2023-05-10T01:55:41;31.73;;;13.32;;
25948;SDS011;13961;51.178;4.448;2023-05-10T01:58:26;28.75;;;13.43;;
25948;SDS011;13961;51.178;4.448;2023-05-10T02:03:23;32.65;;;12.63;;
25948;SDS011;13961;51.178;4.448;2023-05-10T02:05:51;27.65;;;13.13;;
25948;SDS011;13961;51.178;4.448;2023-05-10T02:08:20;31.30;;;13.18;;
25948;SDS011;13961;51.178;4.448;2023-05-10T02:10:47;28.55;;;13.73;;
25948;SDS011;13961;51.178;4.448;2023-05-10T02:13:16;26.92;;;13.13;;
25948;SDS011;13961;51.178;4.448;2023-05-10T02:15:45;26.48;;;13.10;;
25948;SDS011;13961;51.178;4.448;2023-05-10T02:18:15;30.77;;;13.75;;
25948;SDS011;13961;51.178;4.448;2023-05-10T02:20:47;29.75;;;13.93;;
25948;SDS011;13961;51.178;4.448;2023-05-10T02:23:13;27.70;;;13.45;;
25948;SDS011;13961;51.178;4.448;2023-05-10T02:25:41;28.48;;;13.27;;
25948;SDS011;13961;51.178;4.448;2023-05-10T02:28:07;33.78;;;14.95;;
25948;SDS011;13961;51.178;4.448;2023-05-10T02:30:33;33.20;;;15.45;;
25948;SDS011;13961;51.178;4.448;2023-05-10T02:33:01;33.22;;;14.77;;
25948;SDS011;13961;51.178;4.448;2023-05-10T02:35:30;33.03;;;15.48;;
25948;SDS011;13961;51.178;4.448;2023-05-10T02:37:58;31.80;;;15.25;;
25948;SDS011;13961;51.178;4.448;2023-05-10T02:40:25;35.47;;;16.30;;
25948;SDS011;13961;51.178;4.448;2023-05-10T02:42:54;36.70;;;15.77;;
25948;SDS011;13961;51.178;4.448;2023-05-10T02:45:23;37.42;;;16.08;;
25948;SDS011;13961;51.178;4.448;2023-05-10T02:47:53;32.85;;;15.30;;
25948;SDS011;13961;51.178;4.448;2023-05-10T02:50:19;42.55;;;17.58;;
25948;SDS011;13961;51.178;4.448;2023-05-10T02:52:46;43.42;;;17.65;;
25948;SDS011;13961;51.178;4.448;2023-05-10T02:55:15;38.40;;;18.40;;
25948;SDS011;13961;51.178;4.448;2023-05-10T02:57:58;43.08;;;18.73;;
25948;SDS011;13961;51.178;4.448;2023-05-10T03:00:25;48.00;;;19.42;;
25948;SDS011;13961;51.178;4.448;2023-05-10T03:02:51;49.88;;;20.30;;
25948;SDS011;13961;51.178;4.448;2023-05-10T03:05:18;47.15;;;22.50;;
25948;SDS011;13961;51.178;4.448;2023-05-10T03:07:44;59.90;;;23.90;;
25948;SDS011;13961;51.178;4.448;2023-05-10T03:10:11;91.43;;;34.30;;
25948;SDS011;13961;51.178;4.448;2023-05-10T03:12:55;132.75;;;42.05;;
25948;SDS011;13961;51.178;4.448;2023-05-10T03:18:28;124.78;;;40.75;;
25948;SDS011;13961;51.178;4.448;2023-05-10T03:21:01;126.97;;;43.50;;
25948;SDS011;13961;51.178;4.448;2023-05-10T03:23:35;110.88;;;39.58;;
25948;SDS011;13961;51.178;4.448;2023-05-10T03:26:20;104.30;;;38.25;;
25948;SDS011;13961;51.178;4.448;2023-05-10T03:28:50;98.85;;;35.85;;
25948;SDS011;13961;51.178;4.448;2023-05-10T03:31:19;95.72;;;36.20;;
25948;SDS011;13961;51.178;4.448;2023-05-10T03:33:48;84.88;;;30.58;;
25948;SDS011;13961;51.178;4.448;2023-05-10T03:36:15;67.75;;;26.83;;
25948;SDS011;13961;51.178;4.448;2023-05-10T03:38:41;67.03;;;26.05;;
25948;SDS011;13961;51.178;4.448;2023-05-10T03:41:07;61.15;;;23.88;;
25948;SDS011;13961;51.178;4.448;2023-05-10T03:43:33;63.08;;;24.33;;
25948;SDS011;13961;51.178;4.448;2023-05-10T03:46:01;59.65;;;24.60;;
25948;SDS011;13961;51.178;4.448;2023-05-10T03:48:31;58.88;;;23.77;;
25948;SDS011;13961;51.178;4.448;2023-05-10T03:50:58;63.10;;;24.85;;
25948;SDS011;13961;51.178;4.448;2023-05-10T03:53:24;64.63;;;25.85;;
25948;SDS011;13961;51.178;4.448;2023-05-10T03:55:49;63.47;;;24.90;;
25948;SDS011;13961;51.178;4.448;2023-05-10T03:58:15;64.13;;;24.23;;
25948;SDS011;13961;51.178;4.448;2023-05-10T04:00:41;61.92;;;24.17;;
25948;SDS011;13961;51.178;4.448;2023-05-10T04:03:09;66.45;;;25.25;;
25948;SDS011;13961;51.178;4.448;2023-05-10T04:05:36;57.53;;;22.92;;
25948;SDS011;13961;51.178;4.448;2023-05-10T04:08:02;63.50;;;24.08;;
25948;SDS011;13961;51.178;4.448;2023-05-10T04:10:28;62.70;;;24.05;;
25948;SDS011;13961;51.178;4.448;2023-05-10T04:12:53;66.63;;;23.98;;
25948;SDS011;13961;51.178;4.448;2023-05-10T04:15:19;66.18;;;24.63;;
25948;SDS011;13961;51.178;4.448;2023-05-10T04:17:45;74.07;;;26.40;;
25948;SDS011;13961;51.178;4.448;2023-05-10T04:20:11;64.05;;;24.13;;
25948;SDS011;13961;51.178;4.448;2023-05-10T04:22:38;61.13;;;21.90;;
25948;SDS011;13961;51.178;4.448;2023-05-10T04:25:03;64.18;;;22.98;;
25948;SDS011;13961;51.178;4.448;2023-05-10T04:27:30;62.70;;;22.60;;
25948;SDS011;13961;51.178;4.448;2023-05-10T04:29:56;57.05;;;22.52;;
25948;SDS011;13961;51.178;4.448;2023-05-10T04:32:22;63.38;;;24.50;;
25948;SDS011;13961;51.178;4.448;2023-05-10T04:34:48;61.25;;;23.17;;
25948;SDS011;13961;51.178;4.448;2023-05-10T04:37:15;57.03;;;22.20;;
25948;SDS011;13961;51.178;4.448;2023-05-10T04:39:41;61.92;;;22.48;;
25948;SDS011;13961;51.178;4.448;2023-05-10T04:42:07;58.67;;;20.40;;
25948;SDS011;13961;51.178;4.448;2023-05-10T04:44:32;51.05;;;19.88;;
25948;SDS011;13961;51.178;4.448;2023-05-10T04:46:59;55.55;;;20.70;;
25948;SDS011;13961;51.178;4.448;2023-05-10T04:49:27;50.83;;;20.23;;
25948;SDS011;13961;51.178;4.448;2023-05-10T04:51:53;49.05;;;19.52;;
25948;SDS011;13961;51.178;4.448;2023-05-10T04:54:19;54.55;;;20.80;;
25948;SDS011;13961;51.178;4.448;2023-05-10T04:56:44;53.80;;;20.58;;
25948;SDS011;13961;51.178;4.448;2023-05-10T04:59:10;52.45;;;19.88;;
25948;SDS011;13961;51.178;4.448;2023-05-10T05:01:36;54.97;;;20.02;;
25948;SDS011;13961;51.178;4.448;2023-05-10T05:04:02;49.55;;;20.00;;
25948;SDS011;13961;51.178;4.448;2023-05-10T05:06:27;53.58;;;19.92;;
25948;SDS011;13961;51.178;4.448;2023-05-10T05:08:53;50.70;;;20.70;;
25948;SDS011;13961;51.178;4.448;2023-05-10T05:11:19;55.63;;;21.13;;
25948;SDS011;13961;51.178;4.448;2023-05-10T05:13:46;54.90;;;21.30;;
25948;SDS011;13961;51.178;4.448;2023-05-10T05:16:11;47.38;;;20.98;;
25948;SDS011;13961;51.178;4.448;2023-05-10T05:18:37;52.95;;;21.50;;
25948;SDS011;13961;51.178;4.448;2023-05-10T05:21:12;51.63;;;21.55;;
25948;SDS011;13961;51.178;4.448;2023-05-10T05:23:40;52.63;;;21.63;;
25948;SDS011;13961;51.178;4.448;2023-05-10T05:26:05;48.13;;;21.13;;
25948;SDS011;13961;51.178;4.448;2023-05-10T05:28:31;50.78;;;22.88;;
25948;SDS011;13961;51.178;4.448;2023-05-10T05:30:59;51.10;;;21.55;;
25948;SDS011;13961;51.178;4.448;2023-05-10T05:33:25;51.13;;;21.77;;
25948;SDS011;13961;51.178;4.448;2023-05-10T05:35:51;53.80;;;21.88;;
25948;SDS011;13961;51.178;4.448;2023-05-10T05:38:16;56.15;;;23.67;;
25948;SDS011;13961;51.178;4.448;2023-05-10T05:40:42;54.83;;;22.88;;
25948;SDS011;13961;51.178;4.448;2023-05-10T05:43:08;54.88;;;22.60;;
25948;SDS011;13961;51.178;4.448;2023-05-10T05:45:34;58.22;;;23.55;;
25948;SDS011;13961;51.178;4.448;2023-05-10T05:47:59;56.92;;;22.50;;
25948;SDS011;13961;51.178;4.448;2023-05-10T05:50:25;57.70;;;24.42;;
25948;SDS011;13961;51.178;4.448;2023-05-10T05:52:51;57.47;;;23.92;;
25948;SDS011;13961;51.178;4.448;2023-05-10T05:55:17;50.45;;;23.60;;
25948;SDS011;13961;51.178;4.448;2023-05-10T05:57:42;52.47;;;23.50;;
25948;SDS011;13961;51.178;4.448;2023-05-10T06:00:08;49.05;;;22.88;;
25948;SDS011;13961;51.178;4.448;2023-05-10T06:02:34;43.20;;;21.42;;
25948;SDS011;13961;51.178;4.448;2023-05-10T06:05:00;41.33;;;20.30;;
25948;SDS011;13961;51.178;4.448;2023-05-10T06:07:25;39.83;;;19.60;;
25948;SDS011;13961;51.178;4.448;2023-05-10T06:09:51;38.30;;;18.30;;
25948;SDS011;13961;51.178;4.448;2023-05-10T06:12:17;35.17;;;18.00;;
25948;SDS011;13961;51.178;4.448;2023-05-10T06:14:43;38.70;;;19.83;;
25948;SDS011;13961;51.178;4.448;2023-05-10T06:17:08;42.83;;;20.13;;
25948;SDS011;13961;51.178;4.448;2023-05-10T06:19:34;37.58;;;19.20;;
25948;SDS011;13961;51.178;4.448;2023-05-10T06:22:01;37.95;;;19.15;;
25948;SDS011;13961;51.178;4.448;2023-05-10T06:24:27;33.22;;;18.25;;
25948;SDS011;13961;51.178;4.448;2023-05-10T06:26:59;32.47;;;17.15;;
25948;SDS011;13961;51.178;4.448;2023-05-10T06:29:25;36.92;;;18.92;;
25948;SDS011;13961;51.178;4.448;2023-05-10T06:31:51;31.80;;;17.10;;
25948;SDS011;13961;51.178;4.448;2023-05-10T06:34:17;32.75;;;18.13;;
25948;SDS011;13961;51.178;4.448;2023-05-10T06:36:42;34.10;;;17.88;;
25948;SDS011;13961;51.178;4.448;2023-05-10T06:39:08;35.30;;;18.80;;
25948;SDS011;13961;51.178;4.448;2023-05-10T06:41:36;33.78;;;18.83;;
25948;SDS011;13961;51.178;4.448;2023-05-10T06:44:02;32.58;;;17.85;;
25948;SDS011;13961;51.178;4.448;2023-05-10T06:46:28;32.58;;;17.50;;
25948;SDS011;13961;51.178;4.448;2023-05-10T06:48:54;37.92;;;19.50;;
25948;SDS011;13961;51.178;4.448;2023-05-10T06:51:20;33.00;;;17.25;;
25948;SDS011;13961;51.178;4.448;2023-05-10T06:53:46;31.60;;;18.33;;
25948;SDS011;13961;51.178;4.448;2023-05-10T06:56:12;36.28;;;20.70;;
25948;SDS011;13961;51.178;4.448;2023-05-10T06:58:38;44.55;;;22.15;;
25948;SDS011;13961;51.178;4.448;2023-05-10T07:01:04;41.50;;;21.75;;
25948;SDS011;13961;51.178;4.448;2023-05-10T07:03:30;41.05;;;21.65;;
25948;SDS011;13961;51.178;4.448;2023-05-10T07:06:02;38.80;;;19.92;;
25948;SDS011;13961;51.178;4.448;2023-05-10T07:08:31;42.80;;;21.60;;
25948;SDS011;13961;51.178;4.448;2023-05-10T07:11:01;36.40;;;19.85;;
25948;SDS011;13961;51.178;4.448;2023-05-10T07:13:28;39.50;;;20.73;;
25948;SDS011;13961;51.178;4.448;2023-05-10T07:15:55;39.05;;;21.02;;
25948;SDS011;13961;51.178;4.448;2023-05-10T07:18:21;39.33;;;21.80;;
25948;SDS011;13961;51.178;4.448;2023-05-10T07:20:46;42.03;;;22.80;;
25948;SDS011;13961;51.178;4.448;2023-05-10T07:23:12;42.40;;;23.35;;
25948;SDS011;13961;51.178;4.448;2023-05-10T07:25:38;38.97;;;21.10;;
25948;SDS011;13961;51.178;4.448;2023-05-10T07:28:04;39.20;;;20.15;;
25948;SDS011;13961;51.178;4.448;2023-05-10T07:30:29;37.35;;;20.70;;
25948;SDS011;13961;51.178;4.448;2023-05-10T07:32:55;40.88;;;21.73;;
25948;SDS011;13961;51.178;4.448;2023-05-10T07:35:21;34.13;;;20.40;;
25948;SDS011;13961;51.178;4.448;2023-05-10T07:37:47;31.67;;;18.85;;
25948;SDS011;13961;51.178;4.448;2023-05-10T07:40:12;35.42;;;19.48;;
25948;SDS011;13961;51.178;4.448;2023-05-10T07:42:38;34.63;;;20.52;;
25948;SDS011;13961;51.178;4.448;2023-05-10T07:45:04;35.40;;;20.65;;
25948;SDS011;13961;51.178;4.448;2023-05-10T07:47:30;32.38;;;19.48;;
25948;SDS011;13961;51.178;4.448;2023-05-10T07:49:56;25.33;;;12.50;;
25948;SDS011;13961;51.178;4.448;2023-05-10T07:52:22;23.08;;;13.75;;
25948;SDS011;13961;51.178;4.448;2023-05-10T07:54:47;23.65;;;13.98;;
25948;SDS011;13961;51.178;4.448;2023-05-10T07:57:13;23.52;;;13.80;;
25948;SDS011;13961;51.178;4.448;2023-05-10T07:59:40;18.23;;;12.73;;
25948;SDS011;13961;51.178;4.448;2023-05-10T08:02:06;21.85;;;13.20;;
25948;SDS011;13961;51.178;4.448;2023-05-10T08:04:32;21.42;;;14.15;;
25948;SDS011;13961;51.178;4.448;2023-05-10T08:06:57;23.95;;;14.98;;
25948;SDS011;13961;51.178;4.448;2023-05-10T08:09:23;25.20;;;15.98;;
25948;SDS011;13961;51.178;4.448;2023-05-10T08:11:49;23.02;;;14.95;;
25948;SDS011;13961;51.178;4.448;2023-05-10T08:14:16;20.98;;;15.07;;
25948;SDS011;13961;51.178;4.448;2023-05-10T08:16:43;18.48;;;12.93;;
25948;SDS011;13961;51.178;4.448;2023-05-10T08:19:08;15.85;;;11.85;;
25948;SDS011;13961;51.178;4.448;2023-05-10T08:21:34;18.83;;;12.30;;
25948;SDS011;13961;51.178;4.448;2023-05-10T08:24:01;22.70;;;15.70;;
25948;SDS011;13961;51.178;4.448;2023-05-10T08:26:27;25.60;;;17.60;;
25948;SDS011;13961;51.178;4.448;2023-05-10T08:28:52;28.88;;;18.60;;
25948;SDS011;13961;51.178;4.448;2023-05-10T08:31:18;34.10;;;19.02;;
25948;SDS011;13961;51.178;4.448;2023-05-10T08:33:44;28.10;;;18.75;;
25948;SDS011;13961;51.178;4.448;2023-05-10T08:36:10;27.63;;;18.10;;
25948;SDS011;13961;51.178;4.448;2023-05-10T08:38:37;28.42;;;18.80;;
25948;SDS011;13961;51.178;4.448;2023-05-10T08:41:03;28.80;;;18.55;;
25948;SDS011;13961;51.178;4.448;2023-05-10T08:43:30;31.65;;;19.85;;
25948;SDS011;13961;51.178;4.448;2023-05-10T08:45:57;30.33;;;18.35;;
25948;SDS011;13961;51.178;4.448;2023-05-10T08:48:26;29.52;;;18.73;;
25948;SDS011;13961;51.178;4.448;2023-05-10T08:50:54;27.40;;;17.20;;
25948;SDS011;13961;51.178;4.448;2023-05-10T08:53:24;26.00;;;16.15;;
25948;SDS011;13961;51.178;4.448;2023-05-10T08:55:53;26.67;;;15.40;;
25948;SDS011;13961;51.178;4.448;2023-05-10T08:58:20;22.83;;;15.20;;
25948;SDS011;13961;51.178;4.448;2023-05-10T09:00:46;23.88;;;15.18;;
25948;SDS011;13961;51.178;4.448;2023-05-10T09:03:13;28.20;;;15.65;;
25948;SDS011;13961;51.178;4.448;2023-05-10T09:05:39;22.63;;;14.52;;
25948;SDS011;13961;51.178;4.448;2023-05-10T09:08:06;23.75;;;14.20;;
25948;SDS011;13961;51.178;4.448;2023-05-10T09:10:33;22.70;;;14.48;;
25948;SDS011;13961;51.178;4.448;2023-05-10T09:12:59;25.55;;;14.55;;
25948;SDS011;13961;51.178;4.448;2023-05-10T09:15:25;24.65;;;14.43;;
25948;SDS011;13961;51.178;4.448;2023-05-10T09:17:51;21.27;;;13.27;;
25948;SDS011;13961;51.178;4.448;2023-05-10T09:20:17;22.20;;;12.80;;
25948;SDS011;13961;51.178;4.448;2023-05-10T09:22:43;22.63;;;13.65;;
25948;SDS011;13961;51.178;4.448;2023-05-10T09:25:13;22.00;;;13.48;;
25948;SDS011;13961;51.178;4.448;2023-05-10T09:27:40;23.67;;;13.52;;
25948;SDS011;13961;51.178;4.448;2023-05-10T09:30:07;23.00;;;12.20;;
25948;SDS011;13961;51.178;4.448;2023-05-10T09:32:37;23.45;;;13.18;;
25948;SDS011;13961;51.178;4.448;2023-05-10T09:35:16;28.75;;;13.13;;
25948;SDS011;13961;51.178;4.448;2023-05-10T09:37:47;27.15;;;13.73;;
25948;SDS011;13961;51.178;4.448;2023-05-10T09:40:17;25.30;;;13.07;;
25948;SDS011;13961;51.178;4.448;2023-05-10T09:42:51;25.55;;;13.15;;
25948;SDS011;13961;51.178;4.448;2023-05-10T09:45:21;23.02;;;13.02;;
25948;SDS011;13961;51.178;4.448;2023-05-10T09:47:48;25.10;;;12.80;;
25948;SDS011;13961;51.178;4.448;2023-05-10T09:50:14;28.45;;;13.68;;
25948;SDS011;13961;51.178;4.448;2023-05-10T09:52:47;24.58;;;12.23;;
25948;SDS011;13961;51.178;4.448;2023-05-10T09:55:17;23.77;;;11.60;;
25948;SDS011;13961;51.178;4.448;2023-05-10T09:57:45;23.10;;;10.80;;
25948;SDS011;13961;51.178;4.448;2023-05-10T10:00:18;18.52;;;10.25;;
25948;SDS011;13961;51.178;4.448;2023-05-10T10:02:45;20.45;;;10.60;;
25948;SDS011;13961;51.178;4.448;2023-05-10T10:05:12;20.45;;;9.80;;
25948;SDS011;13961;51.178;4.448;2023-05-10T10:07:38;25.85;;;10.95;;
25948;SDS011;13961;51.178;4.448;2023-05-10T10:10:05;24.38;;;10.93;;
25948;SDS011;13961;51.178;4.448;2023-05-10T10:12:36;18.75;;;9.95;;
25948;SDS011;13961;51.178;4.448;2023-05-10T10:15:02;18.95;;;9.68;;
25948;SDS011;13961;51.178;4.448;2023-05-10T10:17:29;17.75;;;9.10;;
25948;SDS011;13961;51.178;4.448;2023-05-10T10:19:57;19.83;;;10.15;;
25948;SDS011;13961;51.178;4.448;2023-05-10T10:22:23;17.85;;;9.57;;
25948;SDS011;13961;51.178;4.448;2023-05-10T10:24:49;17.58;;;9.82;;
25948;SDS011;13961;51.178;4.448;2023-05-10T10:27:23;20.10;;;10.45;;
25948;SDS011;13961;51.178;4.448;2023-05-10T10:35:54;21.95;;;9.73;;
25948;SDS011;13961;51.178;4.448;2023-05-10T10:38:23;16.25;;;9.43;;
25948;SDS011;13961;51.178;4.448;2023-05-10T10:41:01;19.67;;;10.10;;
25948;SDS011;13961;51.178;4.448;2023-05-10T10:43:32;20.20;;;9.52;;
25948;SDS011;13961;51.178;4.448;2023-05-10T10:48:41;16.97;;;9.50;;
25948;SDS011;13961;51.178;4.448;2023-05-10T10:51:13;15.87;;;9.20;;
25948;SDS011;13961;51.178;4.448;2023-05-10T10:53:39;16.58;;;8.88;;
25948;SDS011;13961;51.178;4.448;2023-05-10T10:56:06;20.27;;;8.85;;
25948;SDS011;13961;51.178;4.448;2023-05-10T10:58:34;19.80;;;9.40;;
25948;SDS011;13961;51.178;4.448;2023-05-10T11:01:12;16.48;;;9.00;;
25948;SDS011;13961;51.178;4.448;2023-05-10T11:03:39;19.10;;;8.93;;
25948;SDS011;13961;51.178;4.448;2023-05-10T11:06:05;19.60;;;9.85;;
25948;SDS011;13961;51.178;4.448;2023-05-10T11:08:32;20.67;;;9.38;;
25948;SDS011;13961;51.178;4.448;2023-05-10T11:11:06;16.67;;;9.00;;
25948;SDS011;13961;51.178;4.448;2023-05-10T11:13:42;15.35;;;8.90;;
25948;SDS011;13961;51.178;4.448;2023-05-10T11:16:10;16.45;;;9.32;;
25948;SDS011;13961;51.178;4.448;2023-05-10T11:19:00;15.32;;;8.77;;
25948;SDS011;13961;51.178;4.448;2023-05-10T11:21:31;16.25;;;9.10;;
25948;SDS011;13961;51.178;4.448;2023-05-10T11:24:00;16.48;;;8.63;;
25948;SDS011;13961;51.178;4.448;2023-05-10T11:28:57;16.38;;;9.02;;
25948;SDS011;13961;51.178;4.448;2023-05-10T11:31:25;15.82;;;8.88;;
25948;SDS011;13961;51.178;4.448;2023-05-10T11:33:55;14.93;;;8.95;;
25948;SDS011;13961;51.178;4.448;2023-05-10T11:36:35;15.95;;;9.45;;
25948;SDS011;13961;51.178;4.448;2023-05-10T11:39:01;19.52;;;9.80;;
25948;SDS011;13961;51.178;4.448;2023-05-10T11:41:28;16.42;;;9.43;;
25948;SDS011;13961;51.178;4.448;2023-05-10T11:43:55;19.17;;;9.90;;
25948;SDS011;13961;51.178;4.448;2023-05-10T11:46:22;16.25;;;9.00;;
25948;SDS011;13961;51.178;4.448;2023-05-10T11:48:52;17.80;;;9.27;;
25948;SDS011;13961;51.178;4.448;2023-05-10T11:51:29;15.32;;;9.43;;
25948;SDS011;13961;51.178;4.448;2023-05-10T11:53:57;15.07;;;10.02;;
25948;SDS011;13961;51.178;4.448;2023-05-10T11:56:23;19.90;;;9.25;;
25948;SDS011;13961;51.178;4.448;2023-05-10T11:58:57;17.42;;;9.02;;
25948;SDS011;13961;51.178;4.448;2023-05-10T12:01:23;13.87;;;8.30;;
25948;SDS011;13961;51.178;4.448;2023-05-10T12:03:51;15.70;;;8.85;;
25948;SDS011;13961;51.178;4.448;2023-05-10T12:06:19;18.33;;;9.43;;
25948;SDS011;13961;51.178;4.448;2023-05-10T12:08:46;16.95;;;8.82;;
25948;SDS011;13961;51.178;4.448;2023-05-10T12:11:12;13.13;;;9.15;;
25948;SDS011;13961;51.178;4.448;2023-05-10T12:13:42;15.23;;;8.52;;
25948;SDS011;13961;51.178;4.448;2023-05-10T12:16:15;15.75;;;8.90;;
25948;SDS011;13961;51.178;4.448;2023-05-10T12:18:42;17.90;;;9.20;;
25948;SDS011;13961;51.178;4.448;2023-05-10T12:21:09;14.13;;;8.73;;
25948;SDS011;13961;51.178;4.448;2023-05-10T12:23:38;15.48;;;9.27;;
25948;SDS011;13961;51.178;4.448;2023-05-10T12:26:04;14.10;;;9.07;;
25948;SDS011;13961;51.178;4.448;2023-05-10T12:28:31;14.60;;;8.65;;
25948;SDS011;13961;51.178;4.448;2023-05-10T12:30:58;19.73;;;9.40;;
25948;SDS011;13961;51.178;4.448;2023-05-10T12:33:24;14.43;;;8.40;;
25948;SDS011;13961;51.178;4.448;2023-05-10T12:35:51;18.17;;;9.48;;
25948;SDS011;13961;51.178;4.448;2023-05-10T12:38:25;14.02;;;8.65;;
25948;SDS011;13961;51.178;4.448;2023-05-10T12:41:03;15.52;;;9.00;;
25948;SDS011;13961;51.178;4.448;2023-05-10T12:43:34;15.57;;;9.15;;
25948;SDS011;13961;51.178;4.448;2023-05-10T12:46:13;13.88;;;8.80;;
25948;SDS011;13961;51.178;4.448;2023-05-10T12:48:41;14.05;;;8.82;;
25948;SDS011;13961;51.178;4.448;2023-05-10T12:51:08;17.02;;;8.95;;
25948;SDS011;13961;51.178;4.448;2023-05-10T12:53:36;14.38;;;9.18;;
25948;SDS011;13961;51.178;4.448;2023-05-10T12:56:03;16.75;;;9.52;;
25948;SDS011;13961;51.178;4.448;2023-05-10T12:58:29;15.35;;;8.52;;
25948;SDS011;13961;51.178;4.448;2023-05-10T13:00:55;13.98;;;8.15;;
25948;SDS011;13961;51.178;4.448;2023-05-10T13:03:21;13.10;;;8.70;;
25948;SDS011;13961;51.178;4.448;2023-05-10T13:05:47;15.55;;;8.88;;
25948;SDS011;13961;51.178;4.448;2023-05-10T13:08:13;17.02;;;9.25;;
25948;SDS011;13961;51.178;4.448;2023-05-10T13:10:39;15.93;;;8.82;;
25948;SDS011;13961;51.178;4.448;2023-05-10T13:13:05;15.48;;;8.98;;
25948;SDS011;13961;51.178;4.448;2023-05-10T13:15:32;12.48;;;8.20;;
25948;SDS011;13961;51.178;4.448;2023-05-10T13:17:58;15.57;;;8.52;;
25948;SDS011;13961;51.178;4.448;2023-05-10T13:20:24;13.15;;;8.82;;
25948;SDS011;13961;51.178;4.448;2023-05-10T13:22:51;15.50;;;9.30;;
25948;SDS011;13961;51.178;4.448;2023-05-10T13:25:16;16.33;;;8.55;;
25948;SDS011;13961;51.178;4.448;2023-05-10T13:27:42;15.18;;;9.40;;
25948;SDS011;13961;51.178;4.448;2023-05-10T13:30:08;17.48;;;8.70;;
25948;SDS011;13961;51.178;4.448;2023-05-10T13:32:34;15.07;;;8.40;;
25948;SDS011;13961;51.178;4.448;2023-05-10T13:35:01;16.83;;;8.63;;
25948;SDS011;13961;51.178;4.448;2023-05-10T13:37:28;14.93;;;8.85;;
25948;SDS011;13961;51.178;4.448;2023-05-10T13:39:54;15.35;;;8.75;;
25948;SDS011;13961;51.178;4.448;2023-05-10T13:42:21;18.17;;;9.27;;
25948;SDS011;13961;51.178;4.448;2023-05-10T13:44:47;12.85;;;8.40;;
25948;SDS011;13961;51.178;4.448;2023-05-10T13:47:13;14.88;;;8.05;;
25948;SDS011;13961;51.178;4.448;2023-05-10T13:49:39;16.00;;;8.70;;
25948;SDS011;13961;51.178;4.448;2023-05-10T13:52:05;17.05;;;8.93;;
25948;SDS011;13961;51.178;4.448;2023-05-10T13:54:32;14.13;;;8.77;;
25948;SDS011;13961;51.178;4.448;2023-05-10T13:56:59;17.27;;;9.60;;
25948;SDS011;13961;51.178;4.448;2023-05-10T13:59:25;14.70;;;8.70;;
25948;SDS011;13961;51.178;4.448;2023-05-10T14:01:50;16.95;;;9.20;;
25948;SDS011;13961;51.178;4.448;2023-05-10T14:04:16;14.65;;;9.43;;
25948;SDS011;13961;51.178;4.448;2023-05-10T14:06:42;17.23;;;9.60;;
25948;SDS011;13961;51.178;4.448;2023-05-10T14:09:07;20.42;;;10.02;;
25948;SDS011;13961;51.178;4.448;2023-05-10T14:11:33;15.15;;;9.43;;
25948;SDS011;13961;51.178;4.448;2023-05-10T14:13:59;18.70;;;10.30;;
25948;SDS011;13961;51.178;4.448;2023-05-10T14:16:25;21.23;;;11.05;;
25948;SDS011;13961;51.178;4.448;2023-05-10T14:18:52;19.38;;;11.32;;
25948;SDS011;13961;51.178;4.448;2023-05-10T14:21:17;17.67;;;10.43;;
25948;SDS011;13961;51.178;4.448;2023-05-10T14:23:43;16.50;;;10.63;;
25948;SDS011;13961;51.178;4.448;2023-05-10T14:26:09;22.08;;;11.23;;
25948;SDS011;13961;51.178;4.448;2023-05-10T14:28:35;21.55;;;11.55;;
25948;SDS011;13961;51.178;4.448;2023-05-10T14:31:00;19.15;;;11.35;;
25948;SDS011;13961;51.178;4.448;2023-05-10T14:33:26;17.52;;;10.82;;
25948;SDS011;13961;51.178;4.448;2023-05-10T14:35:53;17.33;;;10.85;;
25948;SDS011;13961;51.178;4.448;2023-05-10T14:38:22;22.40;;;10.48;;
25948;SDS011;13961;51.178;4.448;2023-05-10T14:40:48;19.23;;;11.05;;
25948;SDS011;13961;51.178;4.448;2023-05-10T14:43:14;18.55;;;9.85;;
25948;SDS011;13961;51.178;4.448;2023-05-10T14:45:40;20.55;;;11.90;;
25948;SDS011;13961;51.178;4.448;2023-05-10T14:48:06;21.13;;;11.70;;
25948;SDS011;13961;51.178;4.448;2023-05-10T14:50:36;20.15;;;11.75;;
25948;SDS011;13961;51.178;4.448;2023-05-10T14:53:02;18.00;;;10.82;;
25948;SDS011;13961;51.178;4.448;2023-05-10T14:55:27;18.80;;;10.57;;
25948;SDS011;13961;51.178;4.448;2023-05-10T14:57:53;16.52;;;11.52;;
25948;SDS011;13961;51.178;4.448;2023-05-10T15:00:19;20.65;;;10.93;;
25948;SDS011;13961;51.178;4.448;2023-05-10T15:02:45;17.48;;;10.52;;